Cosco Melbourne — V7IF5 — position and weather

sailwx.info

Track history (hours):
 
Tides and Currents Weather Stations Pressure Air Temp Water Temp Dewpoint Dewpoint Depression Visibility Wind Speed Wind Dir Waves Ship Positions

Cosco Melbourne

Last reported at 2016-May-25 01:14 UTC. Time now 2016-May-25 12:58 UTC.
Position N 22°19' E 120°04'.

Type: Ship (hazmat cat A). MMSI: 538002366.

Date/timePositionNaut miles runAvg speedWind from/ knotsBaromVisibWave heightAir tempDewpointWater temp
2016-May-25 01:14N 22°19' E 120°04'2010.4
2016-May-24 23:20N 22°32' E 120°20'0 0.1
2016-May-24 22:33N 22°32' E 120°20'0 0.0
2016-May-24 19:04N 22°32' E 120°20'0 0.1
2016-May-24 18:13N 22°32' E 120°20'0 0.0
2016-May-24 16:20N 22°32' E 120°20'0 0.0
2016-May-24 15:31N 22°32' E 120°20'0 0.0
2016-May-24 08:17N 22°32' E 120°20'4 5.2
2016-May-24 07:33N 22°32' E 120°16'1313.6
2016-May-24 06:33N 22°43' E 120°07'42814.2
2016-May-23 00:28N 29°34' E 122°19'1313.2
2016-May-22 23:31N 29°46' E 122°17'1111.4
2016-May-22 22:32N 29°55' E 122°09'1312.7
2016-May-22 21:32N 29°57' E 121°54'2 2.1
2016-May-22 20:33N 29°56' E 121°52'0 0.0
2016-May-22 19:33N 29°56' E 121°52'0 0.0
2016-May-22 18:31N 29°56' E 121°52'0 0.0
2016-May-22 17:33N 29°56' E 121°52'0 0.0
2016-May-22 16:26N 29°56' E 121°52'0 0.0
2016-May-22 15:31N 29°56' E 121°52'0 0.0
2016-May-22 14:24N 29°56' E 121°52'0 0.4
2016-May-22 13:28N 29°57' E 121°52'8 8.3
2016-May-22 12:27N 29°56' E 122°02'1112.2
2016-May-22 11:33N 29°50' E 122°13'10 9.5
2016-May-22 10:31N 29°44' E 122°22'3 3.5
2016-May-22 09:33N 29°44' E 122°26'0 0.0
2016-May-22 08:31N 29°44' E 122°26'0 0.0
2016-May-22 07:31N 29°44' E 122°26'0 0.0
2016-May-22 06:32N 29°44' E 122°26'46 7.6
2016-May-22 00:28N 30°24' E 122°52'9 9.0
2016-May-21 23:31N 30°33' E 122°55'7610.2
2016-May-21 16:06N 31°19' E 121°45'5 9.2
2016-May-21 15:32N 31°20' E 121°39'0 0.1
2016-May-21 14:33N 31°20' E 121°39'0 0.0
2016-May-21 13:33N 31°20' E 121°39'0 0.0
2016-May-21 12:34N 31°20' E 121°39'0 0.0
2016-May-21 11:34N 31°20' E 121°39'0 0.0
2016-May-21 10:33N 31°20' E 121°39'0 0.0
2016-May-21 09:34N 31°20' E 121°39'0 0.0
2016-May-21 08:33N 31°20' E 121°39'0 0.0
2016-May-21 07:33N 31°20' E 121°39'0 0.0
2016-May-21 06:34N 31°20' E 121°39'0 0.0
2016-May-21 05:33N 31°20' E 121°39'0 0.0
2016-May-21 04:33N 31°20' E 121°39'0 0.0
2016-May-21 03:31N 31°20' E 121°39'0 0.0
2016-May-21 02:33N 31°20' E 121°39'0 0.5
2016-May-21 01:33N 31°21' E 121°39'8 7.0
2016-May-21 00:27N 31°18' E 121°47'5810.9
2016-May-20 19:07N 30°52' E 122°48'50811.9
2016-May-19 00:33N 22°45' E 120°07'1312.6
2016-May-18 23:32N 22°33' E 120°13'6 6.1
2016-May-18 22:33N 22°33' E 120°20'0 0.0
2016-May-18 21:33N 22°33' E 120°20'0 0.0
2016-May-18 20:32N 22°33' E 120°20'0 0.0
2016-May-18 19:33N 22°33' E 120°20'0 0.0
2016-May-18 18:33N 22°33' E 120°20'0 0.0
2016-May-18 17:32N 22°33' E 120°20'0 0.0
2016-May-18 16:33N 22°33' E 120°20'0 0.0
2016-May-18 15:31N 22°33' E 120°20'0 0.2
2016-May-18 14:20N 22°33' E 120°20'7 8.1
2016-May-18 13:32N 22°30' E 120°13'1615.4
2016-May-18 12:30N 22°14' E 120°13'  
Track history (hours):
 
Tides and Currents Weather Stations Pressure Air Temp Water Temp Dewpoint Dewpoint Depression Visibility Wind Speed Wind Dir Waves Ship Positions

Cosco Melbourne

Last reported at 2016-May-25 01:14 UTC. Time now 2016-May-25 12:58 UTC.
Position N 22°19' E 120°04'.

Type: Ship (hazmat cat A). MMSI: 538002366.

Date/timePositionNaut miles runAvg speedWind from/ knotsBaromVisibWave heightAir tempDewpointWater temp
2016-May-25 01:14N 22°19' E 120°04'2010.4
2016-May-24 23:20N 22°32' E 120°20'0 0.1
2016-May-24 22:33N 22°32' E 120°20'0 0.0
2016-May-24 19:04N 22°32' E 120°20'0 0.1
2016-May-24 18:13N 22°32' E 120°20'0 0.0
2016-May-24 16:20N 22°32' E 120°20'0 0.0
2016-May-24 15:31N 22°32' E 120°20'0 0.0
2016-May-24 08:17N 22°32' E 120°20'4 5.2
2016-May-24 07:33N 22°32' E 120°16'1313.6
2016-May-24 06:33N 22°43' E 120°07'42814.2
2016-May-23 00:28N 29°34' E 122°19'1313.2
2016-May-22 23:31N 29°46' E 122°17'1111.4
2016-May-22 22:32N 29°55' E 122°09'1312.7
2016-May-22 21:32N 29°57' E 121°54'2 2.1
2016-May-22 20:33N 29°56' E 121°52'0 0.0
2016-May-22 19:33N 29°56' E 121°52'0 0.0
2016-May-22 18:31N 29°56' E 121°52'0 0.0
2016-May-22 17:33N 29°56' E 121°52'0 0.0
2016-May-22 16:26N 29°56' E 121°52'0 0.0
2016-May-22 15:31N 29°56' E 121°52'0 0.0
2016-May-22 14:24N 29°56' E 121°52'0 0.4
2016-May-22 13:28N 29°57' E 121°52'8 8.3
2016-May-22 12:27N 29°56' E 122°02'1112.2
2016-May-22 11:33N 29°50' E 122°13'10 9.5
2016-May-22 10:31N 29°44' E 122°22'3 3.5
2016-May-22 09:33N 29°44' E 122°26'0 0.0
2016-May-22 08:31N 29°44' E 122°26'0 0.0
2016-May-22 07:31N 29°44' E 122°26'0 0.0
2016-May-22 06:32N 29°44' E 122°26'46 7.6
2016-May-22 00:28N 30°24' E 122°52'9 9.0
2016-May-21 23:31N 30°33' E 122°55'7610.2
2016-May-21 16:06N 31°19' E 121°45'5 9.2
2016-May-21 15:32N 31°20' E 121°39'0 0.1
2016-May-21 14:33N 31°20' E 121°39'0 0.0
2016-May-21 13:33N 31°20' E 121°39'0 0.0
2016-May-21 12:34N 31°20' E 121°39'0 0.0
2016-May-21 11:34N 31°20' E 121°39'0 0.0
2016-May-21 10:33N 31°20' E 121°39'0 0.0
2016-May-21 09:34N 31°20' E 121°39'0 0.0
2016-May-21 08:33N 31°20' E 121°39'0 0.0
2016-May-21 07:33N 31°20' E 121°39'0 0.0
2016-May-21 06:34N 31°20' E 121°39'0 0.0
2016-May-21 05:33N 31°20' E 121°39'0 0.0
2016-May-21 04:33N 31°20' E 121°39'0 0.0
2016-May-21 03:31N 31°20' E 121°39'0 0.0
2016-May-21 02:33N 31°20' E 121°39'0 0.5
2016-May-21 01:33N 31°21' E 121°39'8 7.0
2016-May-21 00:27N 31°18' E 121°47'5810.9
2016-May-20 19:07N 30°52' E 122°48'50811.9
2016-May-19 00:33N 22°45' E 120°07'1312.6
2016-May-18 23:32N 22°33' E 120°13'6 6.1
2016-May-18 22:33N 22°33' E 120°20'0 0.0
2016-May-18 21:33N 22°33' E 120°20'0 0.0
2016-May-18 20:32N 22°33' E 120°20'0 0.0
2016-May-18 19:33N 22°33' E 120°20'0 0.0
2016-May-18 18:33N 22°33' E 120°20'0 0.0
2016-May-18 17:32N 22°33' E 120°20'0 0.0
2016-May-18 16:33N 22°33' E 120°20'0 0.0
2016-May-18 15:31N 22°33' E 120°20'0 0.2
2016-May-18 14:20N 22°33' E 120°20'7 8.1
2016-May-18 13:32N 22°30' E 120°13'1615.4
2016-May-18 12:30N 22°14' E 120°13'  

Dump ship's entire track history